createdAt,value
2023-02-11T00:00:43.762Z,13.20
2023-02-11T00:06:01.820Z,15.00
2023-02-11T00:11:04.941Z,14.20
2023-02-11T00:16:09.679Z,11.20
2023-02-11T00:21:18.349Z,14.90
2023-02-11T00:26:24.688Z,14.70
2023-02-11T00:31:28.165Z,14.90
2023-02-11T00:36:31.485Z,13.60
2023-02-11T00:41:34.680Z,11.10
2023-02-11T00:46:37.395Z,13.30
2023-02-11T00:51:40.206Z,11.20
2023-02-11T00:56:42.829Z,12.60
2023-02-11T01:01:45.490Z,12.40
2023-02-11T01:06:48.145Z,15.70
2023-02-11T01:11:50.993Z,12.50
2023-02-11T01:16:53.612Z,15.40
2023-02-11T01:21:56.205Z,16.00
2023-02-11T01:26:58.954Z,17.10
2023-02-11T01:32:01.674Z,13.20
2023-02-11T01:37:04.413Z,16.70
2023-02-11T01:42:07.039Z,12.30
2023-02-11T01:47:09.828Z,17.30
2023-02-11T01:52:22.092Z,17.50
2023-02-11T01:57:28.896Z,17.60
2023-02-11T02:02:39.618Z,14.90
2023-02-11T02:07:49.667Z,13.20
2023-02-11T02:12:52.428Z,16.60
2023-02-11T02:18:04.294Z,13.00
2023-02-11T02:23:43.303Z,17.60
2023-02-11T02:29:01.752Z,16.00
2023-02-11T02:34:14.043Z,17.30
2023-02-11T02:39:26.206Z,13.30
2023-02-11T02:44:29.760Z,16.40
2023-02-11T02:49:32.338Z,15.90
2023-02-11T02:54:53.563Z,17.10
2023-02-11T03:00:11.403Z,13.00
2023-02-11T03:05:19.622Z,14.80
2023-02-11T03:10:27.300Z,12.70
2023-02-11T03:15:34.860Z,14.70
2023-02-11T03:20:41.512Z,13.90
2023-02-11T03:26:23.154Z,14.00
2023-02-11T03:31:47.733Z,13.90
2023-02-11T03:37:01.386Z,13.80
2023-02-11T03:42:07.413Z,16.00
2023-02-11T03:47:12.610Z,13.30
2023-02-11T03:52:18.034Z,12.00
2023-02-11T03:57:20.664Z,12.60
2023-02-11T04:02:32.494Z,11.70
2023-02-11T04:07:35.328Z,12.40
2023-02-11T04:12:37.939Z,10.10
2023-02-11T04:17:41.648Z,12.90
2023-02-11T04:22:44.256Z,13.70
2023-02-11T04:27:46.915Z,14.70
2023-02-11T04:32:49.550Z,13.40
2023-02-11T04:37:52.816Z,13.00
2023-02-11T04:42:55.346Z,13.20
2023-02-11T04:47:57.921Z,12.90
2023-02-11T04:53:00.470Z,12.40
2023-02-11T04:58:03.055Z,13.80
2023-02-11T05:03:08.089Z,15.80
2023-02-11T05:08:11.777Z,14.40
2023-02-11T05:13:14.530Z,14.10
2023-02-11T05:18:17.132Z,11.30
2023-02-11T05:23:19.678Z,12.80
2023-02-11T05:28:22.308Z,13.60
2023-02-11T05:33:25.636Z,16.80
2023-02-11T05:38:28.557Z,15.90
2023-02-11T05:43:31.688Z,12.80
2023-02-11T05:48:34.835Z,14.50
2023-02-11T05:53:37.408Z,13.10
2023-02-11T05:58:40.699Z,15.50
2023-02-11T06:03:43.258Z,15.80
2023-02-11T06:08:45.857Z,16.50
2023-02-11T06:13:48.492Z,16.10
2023-02-11T06:18:51.138Z,15.00
2023-02-11T06:23:53.725Z,16.10
2023-02-11T06:28:56.518Z,12.50
2023-02-11T06:33:59.278Z,15.60
2023-02-11T06:39:02.967Z,15.60
2023-02-11T06:44:06.102Z,16.60
2023-02-11T06:49:08.816Z,14.80
2023-02-11T06:54:13.820Z,18.70
2023-02-11T06:59:18.102Z,16.50
2023-02-11T07:04:20.750Z,19.00
2023-02-11T07:09:23.607Z,13.60
2023-02-11T07:14:26.251Z,17.40
2023-02-11T07:19:28.915Z,18.90
2023-02-11T07:24:32.009Z,17.30
2023-02-11T07:29:34.997Z,19.10
2023-02-11T07:34:37.926Z,17.30
2023-02-11T07:39:40.671Z,17.60
2023-02-11T07:44:47.985Z,17.90
2023-02-11T07:49:53.961Z,17.30
2023-02-11T07:54:59.565Z,18.80
2023-02-11T08:00:03.529Z,13.20
2023-02-11T08:05:06.723Z,15.90
2023-02-11T08:10:09.461Z,17.80
2023-02-11T08:15:12.482Z,16.30
2023-02-11T08:20:17.183Z,15.10
2023-02-11T08:25:22.952Z,16.60
2023-02-11T08:30:27.656Z,10.90
2023-02-11T08:35:31.060Z,17.30
2023-02-11T08:40:35.696Z,16.10
2023-02-11T08:45:38.333Z,17.40
2023-02-11T08:50:40.943Z,9.00
2023-02-11T08:55:51.930Z,13.30
2023-02-11T09:00:54.883Z,14.80
2023-02-11T09:05:58.652Z,13.00
2023-02-11T09:11:01.961Z,13.70
2023-02-11T09:16:05.639Z,13.00
2023-02-11T09:21:09.580Z,14.10
2023-02-11T09:26:44.534Z,14.10
2023-02-11T09:31:47.318Z,15.90
2023-02-11T09:36:49.992Z,13.50
2023-02-11T09:41:59.404Z,14.20
2023-02-11T09:47:30.958Z,15.80
2023-02-11T09:52:38.510Z,12.10
2023-02-11T09:57:41.096Z,13.40
2023-02-11T10:03:00.694Z,15.50
2023-02-11T10:08:17.046Z,15.00
2023-02-11T10:13:42.562Z,14.50
2023-02-11T10:19:05.225Z,13.00
2023-02-11T10:24:14.092Z,14.80
2023-02-11T10:29:37.928Z,11.80
2023-02-11T10:34:42.278Z,11.60
2023-02-11T10:39:44.963Z,12.20
2023-02-11T10:45:02.613Z,11.70
2023-02-11T10:50:26.206Z,11.40
2023-02-11T10:55:30.162Z,11.70
2023-02-11T11:00:40.379Z,10.40
2023-02-11T11:05:52.367Z,10.90
2023-02-11T11:11:08.169Z,10.60
2023-02-11T11:16:13.970Z,9.70
2023-02-11T11:21:19.424Z,11.50
2023-02-11T11:26:49.680Z,10.50
2023-02-11T11:32:00.773Z,11.90
2023-02-11T11:42:31.770Z,12.60
2023-02-11T11:47:56.150Z,12.30
2023-02-11T11:53:28.562Z,8.90
2023-02-11T11:58:34.092Z,8.60
2023-02-11T12:03:48.864Z,11.40
2023-02-11T12:09:12.314Z,11.00
2023-02-11T12:14:36.112Z,9.70
2023-02-11T12:19:41.380Z,9.60
2023-02-11T12:25:18.746Z,10.70
2023-02-11T12:30:37.897Z,10.50
2023-02-11T12:36:12.562Z,9.90
2023-02-11T12:41:48.086Z,10.20
2023-02-11T12:47:11.009Z,9.00
2023-02-11T12:52:20.028Z,9.10
2023-02-11T12:57:26.541Z,6.20
2023-02-11T13:02:56.961Z,7.80
2023-02-11T13:08:15.931Z,6.90
2023-02-11T13:13:25.659Z,6.90
2023-02-11T13:18:51.318Z,8.20
2023-02-11T13:24:09.801Z,6.80
2023-02-11T13:29:15.149Z,6.60
2023-02-11T13:34:43.292Z,6.60
2023-02-11T13:40:01.940Z,5.90
2023-02-11T13:45:20.999Z,5.00
2023-02-11T13:50:26.092Z,6.00
2023-02-11T13:55:30.127Z,5.50
2023-02-11T14:00:36.152Z,4.00
2023-02-11T14:06:31.340Z,4.50
2023-02-11T14:11:34.457Z,4.40
2023-02-11T14:17:09.895Z,4.00
2023-02-11T14:22:17.235Z,3.90
2023-02-11T14:27:42.182Z,3.50
2023-02-11T14:33:16.684Z,4.90
2023-02-11T14:38:35.747Z,4.00
2023-02-11T14:43:46.898Z,4.00
2023-02-11T14:48:53.857Z,4.40
2023-02-11T14:54:02.749Z,4.50
2023-02-11T14:59:17.542Z,4.70
2023-02-11T15:04:24.580Z,4.40
2023-02-11T15:09:37.293Z,4.50
2023-02-11T15:14:45.604Z,4.70
2023-02-11T15:19:55.081Z,4.90
2023-02-11T15:25:00.959Z,4.90
2023-02-11T15:30:24.761Z,5.10
2023-02-11T15:35:35.130Z,4.80
2023-02-11T15:40:37.859Z,4.90
2023-02-11T15:46:01.733Z,4.40
2023-02-11T15:51:25.292Z,5.00
2023-02-11T15:56:45.493Z,3.90
2023-02-11T16:01:49.067Z,4.80
2023-02-11T16:06:53.091Z,5.20
2023-02-11T16:11:58.876Z,5.20
2023-02-11T16:17:06.619Z,4.20
2023-02-11T16:22:15.332Z,4.80
2023-02-11T16:27:25.411Z,4.50
2023-02-11T16:32:29.711Z,4.40
2023-02-11T16:37:32.461Z,2.60
2023-02-11T16:42:35.177Z,3.10
2023-02-11T16:47:40.897Z,3.00
2023-02-11T16:52:43.573Z,3.40
2023-02-11T16:57:46.306Z,3.40
2023-02-11T17:02:49.060Z,4.00
2023-02-11T17:07:52.418Z,3.40
2023-02-11T17:12:55.297Z,4.10
2023-02-11T17:17:58.547Z,3.90
2023-02-11T17:23:01.131Z,3.50
2023-02-11T17:28:05.390Z,3.00
2023-02-11T17:33:09.497Z,2.90
2023-02-11T17:38:12.535Z,2.80
2023-02-11T17:43:15.799Z,2.30
2023-02-11T17:48:18.424Z,2.20
2023-02-11T17:53:21.070Z,2.50
2023-02-11T17:58:23.840Z,3.10
2023-02-11T18:03:26.507Z,1.90
2023-02-11T18:08:30.058Z,1.70
2023-02-11T18:13:33.062Z,1.50
2023-02-11T18:18:35.819Z,1.50
2023-02-11T18:23:38.532Z,1.90
2023-02-11T18:28:45.271Z,1.50
2023-02-11T18:33:48.949Z,1.90
2023-02-11T18:38:53.660Z,1.60
2023-02-11T18:43:59.595Z,1.40
2023-02-11T18:49:02.325Z,1.60
2023-02-11T18:54:05.069Z,1.60
2023-02-11T18:59:13.933Z,2.90
2023-02-11T19:04:19.911Z,2.90
2023-02-11T19:09:22.949Z,3.20
2023-02-11T19:14:31.415Z,2.80
2023-02-11T19:19:36.403Z,1.60
2023-02-11T19:24:40.147Z,1.50
2023-02-11T19:29:43.045Z,1.40
2023-02-11T19:34:46.831Z,1.30
2023-02-11T19:39:49.488Z,1.90
2023-02-11T19:44:52.060Z,2.60
2023-02-11T19:49:55.691Z,1.70
2023-02-11T19:54:59.376Z,1.50
2023-02-11T20:00:02.104Z,1.60
2023-02-11T20:05:05.081Z,1.60
2023-02-11T20:10:08.540Z,1.60
2023-02-11T20:15:11.339Z,1.30
2023-02-11T20:20:14.017Z,1.80
2023-02-11T20:25:16.684Z,2.00
2023-02-11T20:30:19.415Z,1.70
2023-02-11T20:35:22.431Z,1.30
2023-02-11T20:40:27.445Z,1.40
2023-02-11T20:45:30.181Z,1.80
2023-02-11T20:50:34.574Z,1.50
2023-02-11T20:55:38.681Z,2.10
2023-02-11T21:00:41.393Z,1.60
2023-02-11T21:05:44.035Z,2.00
2023-02-11T21:10:48.866Z,1.80
2023-02-11T21:15:55.816Z,1.70
2023-02-11T21:20:59.631Z,1.50
2023-02-11T21:26:02.459Z,1.70
2023-02-11T21:31:06.013Z,1.80
2023-02-11T21:36:10.508Z,1.60
2023-02-11T21:41:13.116Z,2.10
2023-02-11T21:46:16.989Z,2.10
2023-02-11T21:51:23.892Z,2.20
2023-02-11T21:56:28.182Z,1.80
2023-02-11T22:01:35.058Z,1.70
2023-02-11T22:06:37.858Z,1.50
2023-02-11T22:11:40.768Z,2.00
2023-02-11T22:16:47.600Z,2.50
2023-02-11T22:21:50.242Z,2.50
2023-02-11T22:26:53.622Z,3.20
2023-02-11T22:31:56.260Z,3.10
2023-02-11T22:37:00.061Z,2.60
2023-02-11T22:42:02.789Z,1.90
2023-02-11T22:47:05.504Z,1.70
2023-02-11T22:52:08.237Z,1.70
2023-02-11T22:57:10.809Z,1.60
2023-02-11T23:02:13.555Z,1.40
2023-02-11T23:07:16.373Z,1.40
2023-02-11T23:12:19.045Z,1.60
2023-02-11T23:17:24.310Z,1.70
2023-02-11T23:22:26.969Z,1.50
2023-02-11T23:27:29.820Z,2.40
2023-02-11T23:32:32.672Z,1.60
2023-02-11T23:37:35.599Z,1.80
2023-02-11T23:42:38.600Z,1.70
2023-02-11T23:47:42.325Z,1.70
2023-02-11T23:52:45.066Z,2.00
2023-02-11T23:57:47.758Z,2.00
